Time;durP1;ratioP1;P1;durP2;ratioP2;P2;SDS_P1;SDS_P2;PMS_P1;PMS_P2;Temp;Humidity;BMP_temperature;BMP_pressure;BME280_temperature;BME280_humidity;BME280_pressure;Samples;Min_cycle;Max_cycle;Signal;HPM_P1;HPM_P2
2021/12/24 07:03:33;;;;;;;11.57;8.03;;;;;;;0.48;63.40;100944.80;1742204;81;21155;-81
2021/12/24 07:06:00;;;;;;;13.93;8.18;;;;;;;0.53;63.10;100930.24;1741121;81;21079;-80
2021/12/24 07:08:28;;;;;;;11.85;7.78;;;;;;;0.58;62.95;100925.45;1742627;82;21075;-84
2021/12/24 07:10:56;;;;;;;12.75;8.53;;;;;;;0.62;62.90;100928.36;1742085;81;21225;-84
2021/12/24 07:13:26;;;;;;;14.00;9.00;;;;;;;0.65;62.79;100917.64;1741689;82;21039;-82
2021/12/24 07:15:56;;;;;;;14.05;8.98;;;;;;;0.70;62.92;100923.52;1710476;82;21133;-81
2021/12/24 07:18:23;;;;;;;13.60;8.18;;;;;;;0.74;62.89;100911.48;1742029;82;21067;-81
2021/12/24 07:20:50;;;;;;;14.93;9.20;;;;;;;0.81;62.94;100906.66;1741417;81;21129;-81
2021/12/24 07:23:18;;;;;;;12.88;7.97;;;;;;;0.87;62.88;100909.91;1741621;81;21101;-84
2021/12/24 07:25:47;;;;;;;12.65;8.33;;;;;;;0.92;62.52;100897.05;1741965;81;20967;-80
2021/12/24 07:28:14;;;;;;;11.93;8.50;;;;;;;0.94;62.52;100889.74;1742299;82;21462;-82
2021/12/24 07:30:43;;;;;;;12.80;8.95;;;;;;;0.97;62.16;100894.78;1742094;82;21639;-85
2021/12/24 07:33:14;;;;;;;13.30;9.10;;;;;;;1.00;61.93;100892.16;1739728;81;21577;-88
2021/12/24 07:36:37;;;;;;;12.88;7.80;;;;;;;1.05;61.89;100892.88;1772492;80;21710;-80
2021/12/24 07:39:58;;;;;;;10.72;8.10;;;;;;;1.11;61.96;100880.41;1772001;80;21029;-81
2021/12/24 07:43:19;;;;;;;15.10;8.70;;;;;;;1.19;61.58;100861.04;1773115;80;21052;-81
2021/12/24 07:47:01;;;;;;;17.67;10.00;;;;;;;1.25;61.31;100851.94;1771826;80;21060;-82
2021/12/24 07:54:08;;;;;;;14.38;9.20;;;;;;;1.39;60.68;100843.50;1772685;80;21021;-85
2021/12/24 07:57:45;;;;;;;10.80;8.15;;;;;;;1.43;60.54;100853.63;1772882;80;20974;-85
2021/12/24 08:01:21;;;;;;;11.97;7.97;;;;;;;1.45;60.41;100850.58;1773037;80;21089;-85
2021/12/24 08:04:57;;;;;;;14.75;8.98;;;;;;;1.49;60.17;100851.34;1772378;80;21050;-77
2021/12/24 08:08:32;;;;;;;14.18;10.10;;;;;;;1.49;60.20;100857.73;1713052;80;20971;-83
2021/12/24 08:12:08;;;;;;;19.20;11.22;;;;;;;1.53;60.44;100847.36;1710612;83;21321;-82
2021/12/24 08:15:48;;;;;;;19.37;10.45;;;;;;;1.58;60.62;100834.47;1710011;83;21668;-79
2021/12/24 08:19:21;;;;;;;15.68;9.98;;;;;;;1.64;61.07;100824.50;1710734;83;20991;-84
2021/12/24 08:22:56;;;;;;;21.75;12.73;;;;;;;1.69;61.44;100808.61;1710051;83;21814;-89
2021/12/24 08:26:32;;;;;;;15.98;10.63;;;;;;;1.72;62.51;100813.21;1710568;83;21031;-88
2021/12/24 08:30:07;;;;;;;15.30;9.98;;;;;;;1.74;64.57;100810.16;1709430;83;21079;-80
2021/12/24 08:33:43;;;;;;;16.82;10.40;;;;;;;1.76;66.64;100804.55;1710358;82;20873;-80
2021/12/24 08:37:19;;;;;;;17.67;11.03;;;;;;;1.72;67.49;100791.90;1710625;83;21058;-82
2021/12/24 08:40:55;;;;;;;20.80;13.30;;;;;;;1.71;68.32;100778.70;1710366;83;21043;-76
2021/12/24 08:44:31;;;;;;;17.32;11.30;;;;;;;1.72;69.12;100765.88;1710409;83;21057;-83
2021/12/24 08:48:07;;;;;;;15.68;11.03;;;;;;;1.76;69.65;100757.66;1710597;82;21604;-79
2021/12/24 08:51:44;;;;;;;15.08;9.73;;;;;;;1.83;70.26;100747.21;1711546;83;21003;-86
2021/12/24 08:55:19;;;;;;;15.50;10.28;;;;;;;1.85;70.02;100734.39;1710544;83;21580;-89
2021/12/24 08:58:56;;;;;;;15.32;9.83;;;;;;;1.81;69.70;100724.68;1710985;83;20916;-79
2021/12/24 09:02:32;;;;;;;17.90;9.85;;;;;;;1.82;69.44;100731.45;1710026;83;21003;-88
2021/12/24 09:06:08;;;;;;;17.10;10.93;;;;;;;1.83;69.10;100728.02;1710135;83;21720;-81
2021/12/24 09:09:43;;;;;;;18.35;10.48;;;;;;;1.83;68.27;100723.34;1710369;83;20983;-80
2021/12/24 09:13:23;;;;;;;15.68;10.40;;;;;;;1.88;67.63;100704.87;1710342;83;21569;-84
2021/12/24 09:20:54;;;;;;;18.25;12.25;;;;;;;2.12;64.46;100687.48;1710732;83;21703;-80
2021/12/24 09:24:32;;;;;;;17.92;10.40;;;;;;;2.20;63.83;100671.45;1710926;82;21664;-81
2021/12/24 09:28:10;;;;;;;18.92;10.88;;;;;;;2.27;63.61;100667.80;1710484;83;21003;-76
2021/12/24 09:31:45;;;;;;;27.10;7.45;;;;;;;2.37;63.30;100662.77;1710428;83;21042;-85
2021/12/24 09:35:21;;;;;;;14.30;8.50;;;;;;;2.50;62.17;100652.97;1710209;83;20952;-82
2021/12/24 09:38:59;;;;;;;18.23;11.03;;;;;;;2.53;61.99;100634.93;1709477;83;20975;-77
2021/12/24 09:42:35;;;;;;;16.32;9.23;;;;;;;2.50;62.71;100632.03;1710712;83;21713;-83
2021/12/24 09:46:11;;;;;;;17.40;10.82;;;;;;;2.36;63.11;100608.59;1714297;82;21020;-80
2021/12/24 09:49:47;;;;;;;16.87;10.50;;;;;;;2.29;63.61;100598.62;1711043;83;21591;-88
2021/12/24 09:53:24;;;;;;;16.20;10.48;;;;;;;2.29;64.25;100596.91;1709727;83;21032;-82
2021/12/24 09:57:01;;;;;;;15.32;9.48;;;;;;;2.23;65.10;100591.16;1710988;83;21004;-84
2021/12/24 10:00:37;;;;;;;15.83;10.43;;;;;;;2.27;65.35;100568.38;1711498;83;21127;-87
2021/12/24 10:04:12;;;;;;;17.57;11.03;;;;;;;2.28;65.80;100536.34;1709831;83;21591;-83
2021/12/24 10:07:48;;;;;;;15.65;10.23;;;;;;;2.35;65.69;100521.60;1709357;82;21048;-85
2021/12/24 10:11:28;;;;;;;17.82;10.72;;;;;;;2.44;65.39;100520.00;1710933;82;21009;-86
2021/12/24 10:15:04;;;;;;;16.75;10.28;;;;;;;2.51;64.79;100499.25;1709935;82;21045;-80
2021/12/24 10:18:40;;;;;;;17.50;10.65;;;;;;;2.59;63.81;100492.55;1711421;82;21040;-83
2021/12/24 10:22:15;;;;;;;15.65;9.45;;;;;;;2.65;62.91;100474.39;1727608;83;21035;-79
2021/12/24 10:25:52;;;;;;;17.90;10.80;;;;;;;2.73;62.38;100496.75;1710764;83;21002;-79
2021/12/24 10:29:30;;;;;;;19.57;12.07;;;;;;;2.81;61.34;100475.50;1700630;83;21018;-83
2021/12/24 10:33:07;;;;;;;39.88;20.15;;;;;;;2.83;61.60;100476.30;1713027;83;21032;-85
2021/12/24 10:36:43;;;;;;;43.78;21.90;;;;;;;2.83;61.70;100472.90;1710331;83;21055;-77
2021/12/24 10:40:19;;;;;;;20.95;13.98;;;;;;;2.85;61.98;100457.02;1709956;83;21024;-81
2021/12/24 10:43:55;;;;;;;35.25;20.35;;;;;;;2.91;61.55;100452.93;1705059;83;21054;-86
2021/12/24 10:47:32;;;;;;;38.98;27.73;;;;;;;2.94;61.35;100426.74;1697055;83;21176;-88
2021/12/24 10:51:19;;;;;;;32.98;14.65;;;;;;;2.95;61.40;100432.27;1699009;83;21078;-87
2021/12/24 10:54:47;;;;;;;31.00;13.78;;;;;;;2.97;61.18;100423.22;1703444;83;21058;-88
